createdAt,value
2023-12-11T00:00:07.816Z,20.07
2023-12-11T00:02:35.474Z,19.50
2023-12-11T00:05:03.926Z,19.33
2023-12-11T00:07:31.589Z,19.67
2023-12-11T00:09:59.051Z,18.90
2023-12-11T00:12:26.487Z,19.70
2023-12-11T00:14:55.932Z,19.30
2023-12-11T00:17:23.043Z,19.00
2023-12-11T00:19:50.609Z,21.40
2023-12-11T00:22:18.869Z,20.90
2023-12-11T00:24:46.354Z,18.77
2023-12-11T00:27:13.708Z,19.53
2023-12-11T00:29:41.143Z,19.17
2023-12-11T00:32:08.559Z,19.00
2023-12-11T00:34:36.076Z,21.57
2023-12-11T00:37:03.633Z,21.33
2023-12-11T00:39:31.355Z,23.03
2023-12-11T00:41:58.836Z,21.93
2023-12-11T00:44:26.255Z,20.10
2023-12-11T00:46:53.874Z,22.30
2023-12-11T00:49:21.438Z,20.93
2023-12-11T00:51:52.492Z,22.00
2023-12-11T00:54:20.063Z,22.07
2023-12-11T00:56:47.614Z,24.37
2023-12-11T00:59:15.134Z,24.70
2023-12-11T01:01:43.292Z,22.80
2023-12-11T01:04:12.435Z,21.10
2023-12-11T01:06:39.853Z,19.50
2023-12-11T01:09:07.277Z,27.37
2023-12-11T01:11:34.772Z,24.87
2023-12-11T01:14:02.234Z,21.70
2023-12-11T01:16:29.656Z,22.33
2023-12-11T01:18:57.211Z,21.27
2023-12-11T01:21:24.769Z,24.23
2023-12-11T01:23:54.904Z,21.90
2023-12-11T01:26:21.203Z,22.67
2023-12-11T01:28:49.593Z,22.07
2023-12-11T01:31:17.069Z,23.57
2023-12-11T01:33:44.532Z,26.60
2023-12-11T01:36:12.076Z,22.03
2023-12-11T01:38:39.475Z,23.17
2023-12-11T01:41:06.859Z,24.27
2023-12-11T01:43:34.323Z,22.20
2023-12-11T01:46:04.112Z,23.77
2023-12-11T01:48:32.160Z,22.73
2023-12-11T01:50:59.691Z,25.60
2023-12-11T01:53:30.366Z,23.63
2023-12-11T01:55:58.180Z,22.17
2023-12-11T01:58:32.657Z,21.63
2023-12-11T02:01:00.314Z,23.20
2023-12-11T02:03:27.952Z,24.50
2023-12-11T02:05:55.403Z,24.20
2023-12-11T02:08:22.892Z,26.27
2023-12-11T02:10:50.387Z,24.60
2023-12-11T02:13:17.802Z,24.13
2023-12-11T02:15:45.765Z,21.67
2023-12-11T02:18:14.234Z,24.33
2023-12-11T02:20:42.581Z,27.07
2023-12-11T02:23:17.531Z,25.10
2023-12-11T02:25:46.458Z,25.47
2023-12-11T02:28:13.956Z,24.57
2023-12-11T02:30:43.065Z,24.50
2023-12-11T02:33:10.473Z,22.40
2023-12-11T02:35:39.890Z,20.30
2023-12-11T02:38:07.321Z,23.57
2023-12-11T02:40:34.769Z,26.47
2023-12-11T02:43:02.263Z,23.27
2023-12-11T02:45:29.783Z,26.43
2023-12-11T02:47:58.969Z,27.10
2023-12-11T02:50:26.456Z,22.40
2023-12-11T02:52:53.897Z,23.83
2023-12-11T02:55:21.311Z,26.77
2023-12-11T02:57:48.832Z,26.13
2023-12-11T03:00:16.368Z,28.57
2023-12-11T03:02:43.776Z,26.60
2023-12-11T03:05:11.218Z,26.60
2023-12-11T03:07:38.641Z,27.33
2023-12-11T03:10:06.299Z,29.33
2023-12-11T03:12:33.731Z,33.60
2023-12-11T03:15:01.146Z,30.00
2023-12-11T03:17:28.851Z,24.30
2023-12-11T03:19:56.472Z,29.60
2023-12-11T03:22:26.900Z,30.30
2023-12-11T03:24:54.812Z,38.70
2023-12-11T03:27:22.289Z,30.17
2023-12-11T03:29:50.004Z,26.20
2023-12-11T03:32:17.423Z,29.73
2023-12-11T03:34:44.990Z,29.63
2023-12-11T03:37:12.499Z,25.83
2023-12-11T03:39:39.911Z,32.00
2023-12-11T03:42:08.905Z,30.33
2023-12-11T03:44:36.436Z,28.80
2023-12-11T03:47:03.866Z,30.07
2023-12-11T03:49:31.369Z,24.53
2023-12-11T03:51:58.918Z,29.83
2023-12-11T03:54:26.444Z,26.70
2023-12-11T03:56:53.861Z,27.13
2023-12-11T03:59:21.303Z,29.50
2023-12-11T04:01:48.801Z,27.87
2023-12-11T04:04:16.405Z,29.37
2023-12-11T04:06:43.849Z,29.03
2023-12-11T04:09:11.342Z,29.23
2023-12-11T04:11:38.847Z,30.60
2023-12-11T04:14:06.351Z,28.57
2023-12-11T04:16:33.781Z,25.33
2023-12-11T04:19:01.395Z,28.50
2023-12-11T04:21:28.871Z,27.63
2023-12-11T04:23:56.821Z,30.10
2023-12-11T04:26:24.547Z,32.07
2023-12-11T04:28:51.979Z,25.13
2023-12-11T04:31:21.069Z,25.87
2023-12-11T04:33:51.165Z,26.77
2023-12-11T04:36:18.638Z,26.50
2023-12-11T04:38:46.108Z,26.90
2023-12-11T04:41:13.636Z,24.07
2023-12-11T04:43:41.061Z,30.87
2023-12-11T04:46:08.541Z,29.17
2023-12-11T04:48:36.082Z,30.00
2023-12-11T04:51:04.766Z,30.53
2023-12-11T04:53:32.205Z,31.80
2023-12-11T04:55:59.716Z,32.43
2023-12-11T04:58:27.977Z,30.97
2023-12-11T05:00:55.400Z,32.67
2023-12-11T05:03:22.834Z,31.83
2023-12-11T05:05:50.232Z,28.93
2023-12-11T05:08:17.691Z,35.47
2023-12-11T05:10:45.106Z,29.30
2023-12-11T05:13:12.625Z,27.27
2023-12-11T05:15:40.149Z,27.77
2023-12-11T05:18:07.560Z,29.70
2023-12-11T05:20:34.996Z,26.67
2023-12-11T05:23:02.597Z,28.17
2023-12-11T05:25:30.042Z,29.90
2023-12-11T05:27:57.527Z,26.20
2023-12-11T05:30:27.463Z,26.90
2023-12-11T05:32:54.985Z,24.87
2023-12-11T05:35:22.424Z,31.10
2023-12-11T05:37:49.882Z,28.20
2023-12-11T05:40:22.597Z,32.47
2023-12-11T05:42:46.364Z,27.50
2023-12-11T05:45:13.797Z,26.03
2023-12-11T05:47:41.228Z,25.80
2023-12-11T05:50:08.929Z,29.67
2023-12-11T05:52:36.347Z,33.03
2023-12-11T05:55:03.903Z,26.03
2023-12-11T05:57:31.539Z,27.90
2023-12-11T05:59:59.094Z,25.50
2023-12-11T06:02:26.656Z,24.27
2023-12-11T06:04:54.132Z,26.90
2023-12-11T06:07:21.597Z,28.70
2023-12-11T06:09:49.458Z,28.37
2023-12-11T06:12:17.742Z,22.57
2023-12-11T06:14:47.383Z,25.60
2023-12-11T06:17:14.217Z,24.50
2023-12-11T06:19:44.621Z,21.23
2023-12-11T06:22:12.574Z,24.63
2023-12-11T06:24:45.018Z,21.77
2023-12-11T06:27:12.523Z,23.50
2023-12-11T06:29:41.075Z,24.90
2023-12-11T06:32:09.359Z,28.83
2023-12-11T06:34:37.472Z,25.00
2023-12-11T06:37:05.316Z,28.33
2023-12-11T06:39:33.199Z,25.90
2023-12-11T06:42:00.798Z,25.13
2023-12-11T06:44:28.197Z,27.63
2023-12-11T06:46:55.885Z,26.43
2023-12-11T06:49:23.500Z,22.73
2023-12-11T06:51:51.440Z,22.67
2023-12-11T06:54:19.276Z,21.53
2023-12-11T06:56:46.797Z,26.75
2023-12-11T06:59:20.063Z,26.70
2023-12-11T07:01:47.597Z,28.90
2023-12-11T07:04:15.325Z,23.70
2023-12-11T07:06:43.488Z,23.60
2023-12-11T07:09:11.321Z,26.20
2023-12-11T07:11:38.774Z,23.17
2023-12-11T07:14:06.604Z,22.60
2023-12-11T07:16:36.899Z,23.30
2023-12-11T07:19:05.480Z,22.10
2023-12-11T07:21:33.117Z,21.53
2023-12-11T07:24:00.562Z,23.60
2023-12-11T07:26:28.021Z,24.00
2023-12-11T07:28:55.597Z,24.17
2023-12-11T07:31:23.038Z,24.30
2023-12-11T07:33:50.545Z,24.40
2023-12-11T07:36:18.096Z,24.10
2023-12-11T07:38:45.556Z,23.00
2023-12-11T07:41:12.981Z,23.10
2023-12-11T07:43:40.451Z,23.03
2023-12-11T07:46:07.919Z,22.90
2023-12-11T07:48:35.539Z,29.90
2023-12-11T07:51:03.138Z,24.83
2023-12-11T07:53:30.547Z,24.63
2023-12-11T07:55:57.978Z,27.73
2023-12-11T07:58:25.403Z,28.10
2023-12-11T08:00:52.973Z,26.77
2023-12-11T08:03:20.427Z,26.17
2023-12-11T08:05:47.979Z,23.43
2023-12-11T08:08:15.480Z,25.97
2023-12-11T08:10:43.039Z,26.27
2023-12-11T08:13:13.398Z,24.50
2023-12-11T08:15:41.867Z,35.33
2023-12-11T08:18:09.320Z,26.30
2023-12-11T08:20:37.332Z,23.60
2023-12-11T08:23:04.861Z,29.33
2023-12-11T08:25:32.289Z,30.57
2023-12-11T08:27:59.888Z,26.60
2023-12-11T08:30:29.844Z,27.97
2023-12-11T08:32:57.363Z,26.93
2023-12-11T08:35:24.805Z,23.87
2023-12-11T08:37:52.261Z,26.30
2023-12-11T08:40:21.605Z,34.90
2023-12-11T08:42:49.126Z,28.37
2023-12-11T08:45:16.793Z,26.90
2023-12-11T08:47:44.743Z,25.90
2023-12-11T08:50:12.904Z,28.10
2023-12-11T08:52:42.017Z,30.60
2023-12-11T08:55:09.781Z,25.83
2023-12-11T08:57:38.248Z,32.23
2023-12-11T09:00:06.646Z,28.93
2023-12-11T09:02:34.129Z,27.80
2023-12-11T09:05:01.664Z,25.73
2023-12-11T09:07:29.394Z,28.07
2023-12-11T09:09:58.194Z,26.90
2023-12-11T09:12:32.849Z,27.70
2023-12-11T09:14:54.686Z,24.30
2023-12-11T09:17:22.201Z,30.37
2023-12-11T09:19:54.949Z,26.17
2023-12-11T09:22:18.774Z,24.73
2023-12-11T09:24:48.221Z,23.70
2023-12-11T09:27:18.198Z,25.33
2023-12-11T09:29:47.472Z,29.33
2023-12-11T09:32:14.877Z,25.43
2023-12-11T09:34:42.910Z,28.90
2023-12-11T09:37:10.635Z,26.47
2023-12-11T09:39:38.220Z,34.97
2023-12-11T09:42:06.777Z,28.70
2023-12-11T09:44:35.026Z,26.77
2023-12-11T09:47:08.944Z,33.20
2023-12-11T09:49:36.074Z,27.40
2023-12-11T09:52:04.371Z,28.13
2023-12-11T09:54:31.909Z,33.63
2023-12-11T09:57:00.071Z,30.37
2023-12-11T09:59:28.827Z,33.23
2023-12-11T10:01:56.962Z,31.33
2023-12-11T10:04:24.579Z,30.87
2023-12-11T10:06:56.151Z,26.83
2023-12-11T10:09:36.206Z,26.13
2023-12-11T10:12:05.159Z,30.70
2023-12-11T10:14:32.599Z,32.10
2023-12-11T10:17:05.909Z,31.57
2023-12-11T10:19:34.182Z,32.87
2023-12-11T10:22:01.977Z,26.23
2023-12-11T10:24:30.885Z,27.80
2023-12-11T10:26:58.695Z,28.57
2023-12-11T10:29:31.608Z,28.80
2023-12-11T10:32:05.192Z,26.80
2023-12-11T10:34:47.115Z,27.47
2023-12-11T10:37:15.438Z,29.37
2023-12-11T10:39:55.847Z,27.37
2023-12-11T10:42:24.292Z,27.93
2023-12-11T10:44:54.290Z,28.23
2023-12-11T10:47:26.387Z,30.30
2023-12-11T10:49:53.960Z,27.80
2023-12-11T10:52:21.502Z,28.43
2023-12-11T10:54:49.131Z,26.93
2023-12-11T10:57:23.667Z,29.07
2023-12-11T10:59:52.635Z,29.73
2023-12-11T11:02:22.034Z,27.77
2023-12-11T11:04:49.558Z,28.43
2023-12-11T11:07:18.628Z,32.00
2023-12-11T11:09:47.778Z,27.20
2023-12-11T11:12:16.737Z,34.50
2023-12-11T11:14:47.385Z,26.03
2023-12-11T11:17:16.854Z,27.20
2023-12-11T11:20:02.578Z,28.43
2023-12-11T11:22:36.350Z,26.70
2023-12-11T11:25:02.008Z,24.93
2023-12-11T11:27:43.539Z,27.83
2023-12-11T11:30:11.437Z,29.80
2023-12-11T11:32:58.300Z,24.57
2023-12-11T11:35:44.055Z,31.33
2023-12-11T11:38:11.540Z,31.00
2023-12-11T11:40:45.834Z,31.90
2023-12-11T11:43:17.044Z,27.83
2023-12-11T11:45:44.617Z,32.03
2023-12-11T11:48:12.427Z,30.17
2023-12-11T11:50:41.374Z,23.20
2023-12-11T11:53:10.006Z,30.03
2023-12-11T11:55:39.190Z,29.30
2023-12-11T11:58:13.614Z,30.10
2023-12-11T12:00:43.603Z,27.63
2023-12-11T12:03:12.017Z,28.10
2023-12-11T12:06:04.394Z,31.03
2023-12-11T12:08:31.914Z,30.53
2023-12-11T12:10:59.412Z,24.70
2023-12-11T12:13:28.838Z,28.00
2023-12-11T12:15:56.378Z,28.10
2023-12-11T12:18:23.976Z,27.00
2023-12-11T12:21:04.271Z,28.43
2023-12-11T12:23:32.123Z,25.27
2023-12-11T12:26:00.934Z,26.53
2023-12-11T12:28:28.988Z,30.57
2023-12-11T12:30:59.774Z,26.53
2023-12-11T12:33:27.441Z,32.33
2023-12-11T12:35:55.532Z,27.17
2023-12-11T12:38:23.034Z,28.23
2023-12-11T12:40:52.174Z,22.90
2023-12-11T12:43:20.288Z,28.20
2023-12-11T12:45:47.928Z,27.00
2023-12-11T12:48:15.643Z,25.87
2023-12-11T12:50:43.133Z,23.97
2023-12-11T12:53:18.937Z,23.50
2023-12-11T12:55:46.495Z,30.73
2023-12-11T12:58:16.534Z,24.97
2023-12-11T13:00:43.279Z,23.83
2023-12-11T13:03:10.818Z,25.07
2023-12-11T13:05:39.967Z,27.20
2023-12-11T13:08:07.543Z,25.50
2023-12-11T13:10:35.032Z,25.03
2023-12-11T13:13:04.399Z,28.03
2023-12-11T13:15:31.842Z,30.23
2023-12-11T13:17:59.356Z,26.43
2023-12-11T13:20:27.040Z,28.27
2023-12-11T13:22:55.060Z,26.93
2023-12-11T13:25:22.547Z,29.97
2023-12-11T13:27:50.044Z,27.40
2023-12-11T13:30:19.159Z,26.93
2023-12-11T13:32:47.203Z,31.50
2023-12-11T13:35:14.787Z,25.47
2023-12-11T13:37:42.285Z,27.40
2023-12-11T13:40:11.901Z,25.63
2023-12-11T13:42:40.275Z,30.90
2023-12-11T13:45:07.899Z,29.40
2023-12-11T13:47:35.365Z,31.47
2023-12-11T13:50:03.128Z,25.70
2023-12-11T13:52:30.826Z,27.53
2023-12-11T13:54:58.312Z,26.10
2023-12-11T13:57:33.972Z,27.43
2023-12-11T14:00:01.429Z,28.03
2023-12-11T14:02:58.881Z,24.57
2023-12-11T14:04:58.589Z,27.10
2023-12-11T14:07:26.113Z,27.80
2023-12-11T14:09:53.562Z,28.70
2023-12-11T14:12:28.988Z,25.63
2023-12-11T14:14:56.470Z,24.37
2023-12-11T14:17:23.963Z,28.70
2023-12-11T14:19:51.533Z,27.63
2023-12-11T14:22:19.118Z,25.07
2023-12-11T14:24:46.989Z,28.73
2023-12-11T14:27:14.418Z,22.83
2023-12-11T14:29:42.276Z,24.83
2023-12-11T14:32:10.952Z,31.40
2023-12-11T14:34:42.860Z,27.17
2023-12-11T14:37:13.985Z,29.67
2023-12-11T14:39:41.708Z,25.07
2023-12-11T14:42:09.107Z,25.43
2023-12-11T14:44:37.054Z,23.10
2023-12-11T14:47:04.672Z,21.97
2023-12-11T14:49:32.419Z,36.50
2023-12-11T14:51:59.850Z,29.57
2023-12-11T14:54:27.323Z,20.97
2023-12-11T14:56:58.041Z,26.07
2023-12-11T14:59:26.561Z,24.80
2023-12-11T15:01:54.105Z,23.53
2023-12-11T15:04:22.446Z,22.50
2023-12-11T15:06:51.017Z,22.83
2023-12-11T15:09:18.518Z,27.67
2023-12-11T15:11:46.072Z,23.40
2023-12-11T15:14:13.972Z,24.27
2023-12-11T15:16:42.651Z,24.30
2023-12-11T15:19:10.666Z,27.20
2023-12-11T15:21:38.533Z,26.53
2023-12-11T15:24:06.538Z,24.90
2023-12-11T15:26:36.416Z,27.93
2023-12-11T15:29:05.535Z,23.90
2023-12-11T15:31:33.741Z,23.97
2023-12-11T15:34:01.624Z,27.23
2023-12-11T15:36:29.120Z,23.73
2023-12-11T15:38:56.672Z,21.80
2023-12-11T15:41:24.095Z,22.10
2023-12-11T15:43:51.543Z,27.60
2023-12-11T15:46:19.080Z,26.60
2023-12-11T15:48:47.853Z,24.80
2023-12-11T15:51:17.279Z,25.17
2023-12-11T15:53:46.578Z,30.03
2023-12-11T15:56:15.964Z,26.07
2023-12-11T15:58:43.820Z,26.17
2023-12-11T16:01:11.826Z,28.23
2023-12-11T16:03:40.079Z,25.40
2023-12-11T16:06:08.069Z,25.80
2023-12-11T16:08:35.790Z,28.60
2023-12-11T16:11:03.489Z,23.43
2023-12-11T16:13:31.521Z,26.53
2023-12-11T16:15:59.285Z,25.00
2023-12-11T16:18:26.860Z,28.97
2023-12-11T16:20:54.414Z,27.00
2023-12-11T16:23:21.925Z,24.37
2023-12-11T16:25:56.438Z,23.17
2023-12-11T16:28:18.453Z,22.67
2023-12-11T16:30:46.343Z,24.93
2023-12-11T16:33:13.911Z,24.60
2023-12-11T16:35:41.373Z,24.20
2023-12-11T16:38:09.001Z,25.03
2023-12-11T16:40:36.913Z,26.57
2023-12-11T16:43:04.482Z,26.67
2023-12-11T16:45:32.038Z,25.50
2023-12-11T16:47:59.713Z,27.20
2023-12-11T16:50:27.489Z,25.63
2023-12-11T16:52:55.022Z,28.37
2023-12-11T16:55:22.573Z,25.63
2023-12-11T16:57:50.396Z,23.27
2023-12-11T17:00:17.914Z,29.30
2023-12-11T17:02:47.428Z,29.40
2023-12-11T17:05:15.240Z,28.20
2023-12-11T17:07:43.986Z,27.30
2023-12-11T17:10:11.498Z,28.33
2023-12-11T17:12:39.028Z,25.20
2023-12-11T17:15:06.693Z,22.77
2023-12-11T17:17:34.396Z,27.20
2023-12-11T17:20:02.440Z,25.63
2023-12-11T17:22:30.005Z,23.60
2023-12-11T17:24:57.480Z,27.50
2023-12-11T17:27:24.912Z,22.73
2023-12-11T17:29:52.372Z,24.77
2023-12-11T17:32:19.814Z,27.70
2023-12-11T17:34:47.412Z,25.97
2023-12-11T17:37:15.043Z,24.97
2023-12-11T17:39:42.539Z,23.30
2023-12-11T17:42:09.989Z,24.33
2023-12-11T17:44:37.485Z,25.47
2023-12-11T17:47:04.991Z,26.87
2023-12-11T17:49:32.569Z,25.03
2023-12-11T17:52:00.950Z,25.43
2023-12-11T17:54:28.654Z,25.50
2023-12-11T17:56:56.177Z,28.40
2023-12-11T17:59:23.706Z,29.50
2023-12-11T18:01:51.260Z,22.70
2023-12-11T18:04:18.841Z,26.87
2023-12-11T18:06:47.897Z,24.27
2023-12-11T18:09:15.471Z,28.50
2023-12-11T18:11:42.908Z,29.33
2023-12-11T18:14:10.368Z,22.07
2023-12-11T18:16:37.865Z,27.63
2023-12-11T18:19:05.420Z,26.30
2023-12-11T18:21:32.919Z,27.33
2023-12-11T18:24:00.380Z,26.97
2023-12-11T18:26:27.900Z,27.47
2023-12-11T18:28:55.366Z,26.50
2023-12-11T18:31:23.048Z,27.63
2023-12-11T18:33:50.805Z,23.77
2023-12-11T18:36:18.653Z,27.67
2023-12-11T18:38:46.096Z,27.50
2023-12-11T18:41:15.848Z,27.30
2023-12-11T18:43:43.328Z,29.37
2023-12-11T18:46:12.400Z,27.93
2023-12-11T18:48:41.385Z,23.33
2023-12-11T18:51:08.827Z,23.77
2023-12-11T18:53:36.301Z,30.77
2023-12-11T18:56:06.822Z,26.17
2023-12-11T18:58:34.306Z,45.63
2023-12-11T19:01:03.184Z,32.47
2023-12-11T19:03:30.842Z,25.03
2023-12-11T19:05:58.343Z,34.53
2023-12-11T19:08:25.772Z,29.00
2023-12-11T19:10:53.227Z,29.33
2023-12-11T19:13:20.791Z,28.20
2023-12-11T19:15:48.262Z,32.60
2023-12-11T19:18:15.746Z,30.40
2023-12-11T19:20:43.718Z,27.43
2023-12-11T19:23:11.155Z,28.60
2023-12-11T19:25:39.479Z,25.20
2023-12-11T19:28:07.127Z,27.63
2023-12-11T19:30:34.585Z,31.27
2023-12-11T19:33:03.347Z,27.30
2023-12-11T19:35:31.077Z,29.03
2023-12-11T19:38:04.306Z,25.67
2023-12-11T19:40:31.871Z,32.90
2023-12-11T19:42:59.367Z,32.90
2023-12-11T19:45:26.803Z,26.43
2023-12-11T19:47:54.356Z,32.17
2023-12-11T19:50:22.025Z,35.93
2023-12-11T19:52:51.698Z,32.47
2023-12-11T19:55:19.532Z,28.00
2023-12-11T19:57:47.082Z,36.63
2023-12-11T20:00:14.703Z,27.10
2023-12-11T20:02:42.732Z,27.80
2023-12-11T20:05:10.236Z,28.17
2023-12-11T20:07:38.647Z,32.57
2023-12-11T20:10:08.120Z,29.17
2023-12-11T20:12:36.741Z,32.73
2023-12-11T20:15:04.706Z,32.53
2023-12-11T20:17:34.025Z,31.80
2023-12-11T20:20:15.898Z,30.97
2023-12-11T20:22:46.479Z,30.20
2023-12-11T20:25:13.887Z,37.43
2023-12-11T20:27:41.321Z,32.87
2023-12-11T20:30:11.443Z,32.40
2023-12-11T20:32:41.208Z,31.67
2023-12-11T20:35:10.683Z,30.70
2023-12-11T20:37:47.391Z,33.93
2023-12-11T20:40:15.902Z,35.27
2023-12-11T20:42:46.208Z,34.53
2023-12-11T20:45:13.722Z,34.13
2023-12-11T20:47:41.214Z,30.13
2023-12-11T20:50:13.467Z,34.53
2023-12-11T20:52:42.412Z,30.33
2023-12-11T20:55:10.116Z,31.27
2023-12-11T20:57:37.626Z,34.10
2023-12-11T21:00:07.632Z,38.83
2023-12-11T21:02:35.042Z,36.20
2023-12-11T21:05:02.664Z,34.03
2023-12-11T21:07:32.015Z,34.37
2023-12-11T21:09:59.903Z,41.13
2023-12-11T21:12:27.289Z,30.57
2023-12-11T21:14:54.760Z,27.80
2023-12-11T21:17:22.239Z,32.67
2023-12-11T21:19:51.295Z,28.97
2023-12-11T21:22:18.752Z,34.43
2023-12-11T21:24:47.726Z,35.77
2023-12-11T21:27:15.383Z,35.77
2023-12-11T21:29:44.297Z,35.27
2023-12-11T21:32:11.775Z,33.80
2023-12-11T21:34:42.664Z,37.17
2023-12-11T21:37:10.220Z,37.77
2023-12-11T21:39:37.637Z,32.37
2023-12-11T21:42:05.820Z,33.07
2023-12-11T21:44:36.216Z,33.73
2023-12-11T21:47:03.669Z,36.23
2023-12-11T21:49:31.722Z,38.57
2023-12-11T21:51:59.466Z,39.07
2023-12-11T21:54:27.022Z,36.27
2023-12-11T21:56:56.065Z,32.53
2023-12-11T21:59:35.066Z,33.93
2023-12-11T22:01:52.726Z,32.30
2023-12-11T22:04:20.359Z,36.40
2023-12-11T22:06:47.978Z,30.10
2023-12-11T22:09:15.531Z,41.90
2023-12-11T22:11:42.941Z,34.67
2023-12-11T22:14:10.428Z,33.57
2023-12-11T22:16:39.730Z,29.67
2023-12-11T22:19:07.004Z,34.23
2023-12-11T22:21:34.605Z,35.00
2023-12-11T22:24:02.059Z,32.23
2023-12-11T22:26:29.541Z,28.13
2023-12-11T22:28:57.009Z,33.80
2023-12-11T22:31:30.828Z,35.87
2023-12-11T22:33:58.598Z,33.90
2023-12-11T22:36:26.094Z,33.83
2023-12-11T22:38:53.513Z,33.87
2023-12-11T22:41:24.338Z,34.60
2023-12-11T22:43:51.757Z,27.87
2023-12-11T22:46:19.265Z,34.60
2023-12-11T22:48:46.935Z,35.07
2023-12-11T22:51:14.759Z,32.77
2023-12-11T22:53:42.207Z,30.13
2023-12-11T22:56:09.724Z,28.97
2023-12-11T22:58:37.230Z,37.67
2023-12-11T23:01:04.785Z,29.00
2023-12-11T23:03:32.220Z,26.40
2023-12-11T23:05:59.695Z,36.73
2023-12-11T23:08:29.982Z,28.63
2023-12-11T23:10:57.476Z,30.80
2023-12-11T23:13:24.912Z,30.90
2023-12-11T23:15:52.375Z,26.33
2023-12-11T23:18:19.963Z,26.80
2023-12-11T23:20:47.514Z,26.67
2023-12-11T23:23:14.966Z,28.23
2023-12-11T23:25:50.231Z,29.87
2023-12-11T23:28:11.493Z,31.10
2023-12-11T23:30:40.084Z,29.87
2023-12-11T23:33:07.691Z,34.37
2023-12-11T23:35:35.347Z,31.20
2023-12-11T23:38:03.839Z,33.23
2023-12-11T23:40:31.308Z,29.50
2023-12-11T23:42:58.710Z,28.70
2023-12-11T23:45:26.100Z,34.00
2023-12-11T23:47:53.795Z,29.77
2023-12-11T23:50:21.260Z,27.90
2023-12-11T23:52:48.785Z,25.83
2023-12-11T23:55:16.271Z,25.70
2023-12-11T23:57:43.798Z,29.83
